sensor_id;sensor_type;location;lat;lon;timestamp;temperature;humidity
949;DHT22;461;51.436;7.312;2024-03-06T00:02:23;7.00;99.90
949;DHT22;461;51.436;7.312;2024-03-06T00:04:49;6.90;99.90
949;DHT22;461;51.436;7.312;2024-03-06T00:07:16;7.00;99.90
949;DHT22;461;51.436;7.312;2024-03-06T00:09:41;7.10;99.90
949;DHT22;461;51.436;7.312;2024-03-06T00:12:08;7.20;99.90
949;DHT22;461;51.436;7.312;2024-03-06T00:14:34;7.20;99.90
949;DHT22;461;51.436;7.312;2024-03-06T00:17:02;7.10;99.90
949;DHT22;461;51.436;7.312;2024-03-06T00:19:30;7.10;99.90
949;DHT22;461;51.436;7.312;2024-03-06T00:21:56;7.00;99.90
949;DHT22;461;51.436;7.312;2024-03-06T00:24:21;7.10;99.90
949;DHT22;461;51.436;7.312;2024-03-06T00:26:48;6.90;99.90
949;DHT22;461;51.436;7.312;2024-03-06T00:29:14;7.00;99.90
949;DHT22;461;51.436;7.312;2024-03-06T00:31:44;7.00;99.90
949;DHT22;461;51.436;7.312;2024-03-06T00:34:11;7.10;99.90
949;DHT22;461;51.436;7.312;2024-03-06T00:36:39;7.10;99.90
949;DHT22;461;51.436;7.312;2024-03-06T00:39:05;7.00;99.90
949;DHT22;461;51.436;7.312;2024-03-06T00:41:34;7.00;99.90
949;DHT22;461;51.436;7.312;2024-03-06T00:44:00;7.00;99.90
949;DHT22;461;51.436;7.312;2024-03-06T00:46:26;7.10;99.90
949;DHT22;461;51.436;7.312;2024-03-06T00:48:51;7.10;99.90
949;DHT22;461;51.436;7.312;2024-03-06T00:51:17;7.00;99.90
949;DHT22;461;51.436;7.312;2024-03-06T00:53:44;7.00;99.90
949;DHT22;461;51.436;7.312;2024-03-06T00:56:09;6.90;99.90
949;DHT22;461;51.436;7.312;2024-03-06T00:58:35;6.80;99.90
949;DHT22;461;51.436;7.312;2024-03-06T01:01:01;6.80;99.90
949;DHT22;461;51.436;7.312;2024-03-06T01:03:26;6.90;99.90
949;DHT22;461;51.436;7.312;2024-03-06T01:05:52;6.90;99.90
949;DHT22;461;51.436;7.312;2024-03-06T01:08:19;7.00;99.90
949;DHT22;461;51.436;7.312;2024-03-06T01:10:45;7.30;99.90
949;DHT22;461;51.436;7.312;2024-03-06T01:13:11;7.50;99.90
949;DHT22;461;51.436;7.312;2024-03-06T01:15:37;7.50;99.90
949;DHT22;461;51.436;7.312;2024-03-06T01:18:04;7.60;99.90
949;DHT22;461;51.436;7.312;2024-03-06T01:20:29;7.40;99.90
949;DHT22;461;51.436;7.312;2024-03-06T01:22:55;7.20;99.90
949;DHT22;461;51.436;7.312;2024-03-06T01:25:21;7.10;99.90
949;DHT22;461;51.436;7.312;2024-03-06T01:27:50;7.20;99.90
949;DHT22;461;51.436;7.312;2024-03-06T01:30:16;7.30;99.90
949;DHT22;461;51.436;7.312;2024-03-06T01:32:42;7.20;99.90
949;DHT22;461;51.436;7.312;2024-03-06T01:35:08;7.00;99.90
949;DHT22;461;51.436;7.312;2024-03-06T01:37:34;6.90;99.90
949;DHT22;461;51.436;7.312;2024-03-06T01:39:59;6.90;99.90
949;DHT22;461;51.436;7.312;2024-03-06T01:42:25;6.80;99.90
949;DHT22;461;51.436;7.312;2024-03-06T01:44:51;6.70;99.90
949;DHT22;461;51.436;7.312;2024-03-06T01:47:17;6.50;99.90
949;DHT22;461;51.436;7.312;2024-03-06T01:49:43;6.50;99.90
949;DHT22;461;51.436;7.312;2024-03-06T01:52:13;6.40;99.90
949;DHT22;461;51.436;7.312;2024-03-06T01:54:39;6.50;99.90
949;DHT22;461;51.436;7.312;2024-03-06T01:57:06;6.60;99.90
949;DHT22;461;51.436;7.312;2024-03-06T01:59:33;6.70;99.90
949;DHT22;461;51.436;7.312;2024-03-06T02:02:00;6.70;99.90
949;DHT22;461;51.436;7.312;2024-03-06T02:04:29;6.70;99.90
949;DHT22;461;51.436;7.312;2024-03-06T02:06:56;6.60;99.90
949;DHT22;461;51.436;7.312;2024-03-06T02:09:23;6.40;99.90
949;DHT22;461;51.436;7.312;2024-03-06T02:11:49;6.30;99.90
949;DHT22;461;51.436;7.312;2024-03-06T02:14:16;6.40;99.90
949;DHT22;461;51.436;7.312;2024-03-06T02:16:41;6.30;99.90
949;DHT22;461;51.436;7.312;2024-03-06T02:19:08;6.30;99.90
949;DHT22;461;51.436;7.312;2024-03-06T02:21:34;6.30;99.90
949;DHT22;461;51.436;7.312;2024-03-06T02:24:00;6.30;99.90
949;DHT22;461;51.436;7.312;2024-03-06T02:26:25;6.30;99.90
949;DHT22;461;51.436;7.312;2024-03-06T02:28:52;6.50;99.90
949;DHT22;461;51.436;7.312;2024-03-06T02:31:19;6.60;99.90
949;DHT22;461;51.436;7.312;2024-03-06T02:33:46;6.80;99.90
949;DHT22;461;51.436;7.312;2024-03-06T02:36:15;6.80;99.90
949;DHT22;461;51.436;7.312;2024-03-06T02:38:42;6.70;99.90
949;DHT22;461;51.436;7.312;2024-03-06T02:41:09;6.80;99.90
949;DHT22;461;51.436;7.312;2024-03-06T02:43:35;6.90;99.90
949;DHT22;461;51.436;7.312;2024-03-06T02:46:00;6.90;99.90
949;DHT22;461;51.436;7.312;2024-03-06T02:48:26;6.80;99.90
949;DHT22;461;51.436;7.312;2024-03-06T02:50:52;6.70;99.90
949;DHT22;461;51.436;7.312;2024-03-06T02:53:18;6.50;99.90
949;DHT22;461;51.436;7.312;2024-03-06T02:55:43;6.50;99.90
949;DHT22;461;51.436;7.312;2024-03-06T02:58:09;6.50;99.90
949;DHT22;461;51.436;7.312;2024-03-06T03:00:35;6.60;99.90
949;DHT22;461;51.436;7.312;2024-03-06T03:03:01;6.70;99.90
949;DHT22;461;51.436;7.312;2024-03-06T03:05:26;6.80;99.90
949;DHT22;461;51.436;7.312;2024-03-06T03:07:53;6.80;99.90
949;DHT22;461;51.436;7.312;2024-03-06T03:10:18;6.70;99.90
949;DHT22;461;51.436;7.312;2024-03-06T03:12:45;6.70;99.90
949;DHT22;461;51.436;7.312;2024-03-06T03:15:10;6.60;99.90
949;DHT22;461;51.436;7.312;2024-03-06T03:17:36;6.60;99.90
949;DHT22;461;51.436;7.312;2024-03-06T03:20:03;6.70;99.90
949;DHT22;461;51.436;7.312;2024-03-06T03:22:44;6.70;99.90
949;DHT22;461;51.436;7.312;2024-03-06T03:25:11;6.80;99.90
949;DHT22;461;51.436;7.312;2024-03-06T03:27:40;6.90;99.90
949;DHT22;461;51.436;7.312;2024-03-06T03:30:10;7.00;99.90
949;DHT22;461;51.436;7.312;2024-03-06T03:32:36;6.90;99.90
949;DHT22;461;51.436;7.312;2024-03-06T03:35:04;7.00;99.90
949;DHT22;461;51.436;7.312;2024-03-06T03:37:31;6.80;99.90
949;DHT22;461;51.436;7.312;2024-03-06T03:39:56;6.50;99.90
949;DHT22;461;51.436;7.312;2024-03-06T03:42:22;6.20;99.90
949;DHT22;461;51.436;7.312;2024-03-06T03:44:48;6.10;99.90
949;DHT22;461;51.436;7.312;2024-03-06T03:47:14;6.10;99.90
949;DHT22;461;51.436;7.312;2024-03-06T03:49:39;6.20;99.90
949;DHT22;461;51.436;7.312;2024-03-06T03:52:05;6.20;99.90
949;DHT22;461;51.436;7.312;2024-03-06T03:54:32;6.20;99.90
949;DHT22;461;51.436;7.312;2024-03-06T03:56:58;6.20;99.90
949;DHT22;461;51.436;7.312;2024-03-06T03:59:25;6.10;99.90
949;DHT22;461;51.436;7.312;2024-03-06T04:01:51;6.20;99.90
949;DHT22;461;51.436;7.312;2024-03-06T04:04:17;6.30;99.90
949;DHT22;461;51.436;7.312;2024-03-06T04:06:42;6.20;99.90
949;DHT22;461;51.436;7.312;2024-03-06T04:09:08;6.10;99.90
949;DHT22;461;51.436;7.312;2024-03-06T04:11:36;6.30;99.90
949;DHT22;461;51.436;7.312;2024-03-06T04:14:04;6.50;99.90
949;DHT22;461;51.436;7.312;2024-03-06T04:16:29;6.60;99.90
949;DHT22;461;51.436;7.312;2024-03-06T04:18:55;6.60;99.90
949;DHT22;461;51.436;7.312;2024-03-06T04:21:21;6.60;99.90
949;DHT22;461;51.436;7.312;2024-03-06T04:23:48;6.40;99.90
949;DHT22;461;51.436;7.312;2024-03-06T04:26:14;6.30;99.90
949;DHT22;461;51.436;7.312;2024-03-06T04:28:40;6.20;99.90
949;DHT22;461;51.436;7.312;2024-03-06T04:31:06;6.10;99.90
949;DHT22;461;51.436;7.312;2024-03-06T04:33:31;6.20;99.90
949;DHT22;461;51.436;7.312;2024-03-06T04:35:57;6.10;99.90
949;DHT22;461;51.436;7.312;2024-03-06T04:38:23;6.20;99.90
949;DHT22;461;51.436;7.312;2024-03-06T04:40:49;6.30;99.90
949;DHT22;461;51.436;7.312;2024-03-06T04:43:15;6.30;99.90
949;DHT22;461;51.436;7.312;2024-03-06T04:45:40;6.20;99.90
949;DHT22;461;51.436;7.312;2024-03-06T04:48:07;6.00;99.90
949;DHT22;461;51.436;7.312;2024-03-06T04:50:33;6.10;99.90
949;DHT22;461;51.436;7.312;2024-03-06T04:52:59;6.30;99.90
949;DHT22;461;51.436;7.312;2024-03-06T04:55:25;6.50;99.90
949;DHT22;461;51.436;7.312;2024-03-06T04:57:52;6.50;99.90
949;DHT22;461;51.436;7.312;2024-03-06T05:00:21;6.40;99.90
949;DHT22;461;51.436;7.312;2024-03-06T05:02:47;6.40;99.90
949;DHT22;461;51.436;7.312;2024-03-06T05:05:14;6.50;99.90
949;DHT22;461;51.436;7.312;2024-03-06T05:07:40;6.60;99.90
949;DHT22;461;51.436;7.312;2024-03-06T05:10:06;6.50;99.90
949;DHT22;461;51.436;7.312;2024-03-06T05:12:35;6.40;99.90
949;DHT22;461;51.436;7.312;2024-03-06T05:15:01;6.30;99.90
949;DHT22;461;51.436;7.312;2024-03-06T05:17:26;6.30;99.90
949;DHT22;461;51.436;7.312;2024-03-06T05:19:52;6.20;99.90
949;DHT22;461;51.436;7.312;2024-03-06T05:22:20;6.30;99.90
949;DHT22;461;51.436;7.312;2024-03-06T05:24:46;6.40;99.90
949;DHT22;461;51.436;7.312;2024-03-06T05:27:12;6.30;99.90
949;DHT22;461;51.436;7.312;2024-03-06T05:29:43;6.30;99.90
949;DHT22;461;51.436;7.312;2024-03-06T05:32:09;6.40;99.90
949;DHT22;461;51.436;7.312;2024-03-06T05:34:35;6.50;99.90
949;DHT22;461;51.436;7.312;2024-03-06T05:37:01;6.40;99.90
949;DHT22;461;51.436;7.312;2024-03-06T05:39:32;6.30;99.90
949;DHT22;461;51.436;7.312;2024-03-06T05:42:03;6.30;99.90
949;DHT22;461;51.436;7.312;2024-03-06T05:44:32;6.30;99.90
949;DHT22;461;51.436;7.312;2024-03-06T05:47:02;6.30;99.90
949;DHT22;461;51.436;7.312;2024-03-06T05:49:28;6.40;99.90
949;DHT22;461;51.436;7.312;2024-03-06T05:51:54;6.50;99.90
949;DHT22;461;51.436;7.312;2024-03-06T05:54:21;6.60;99.90
949;DHT22;461;51.436;7.312;2024-03-06T05:56:50;6.50;99.90
949;DHT22;461;51.436;7.312;2024-03-06T05:59:19;6.60;99.90
949;DHT22;461;51.436;7.312;2024-03-06T06:01:45;6.80;99.90
949;DHT22;461;51.436;7.312;2024-03-06T06:04:12;6.80;99.90
949;DHT22;461;51.436;7.312;2024-03-06T06:06:39;6.70;99.90
949;DHT22;461;51.436;7.312;2024-03-06T06:09:04;6.70;99.90
949;DHT22;461;51.436;7.312;2024-03-06T06:11:31;6.60;99.90
949;DHT22;461;51.436;7.312;2024-03-06T06:13:57;6.40;99.90
949;DHT22;461;51.436;7.312;2024-03-06T06:16:22;6.20;99.90
949;DHT22;461;51.436;7.312;2024-03-06T06:18:48;6.20;99.90
949;DHT22;461;51.436;7.312;2024-03-06T06:21:14;6.00;99.90
949;DHT22;461;51.436;7.312;2024-03-06T06:23:41;5.90;99.90
949;DHT22;461;51.436;7.312;2024-03-06T06:26:08;5.90;99.90
949;DHT22;461;51.436;7.312;2024-03-06T06:28:36;5.90;99.90
949;DHT22;461;51.436;7.312;2024-03-06T06:31:03;6.10;99.90
949;DHT22;461;51.436;7.312;2024-03-06T06:33:29;6.20;99.90
949;DHT22;461;51.436;7.312;2024-03-06T06:35:55;6.10;99.90
949;DHT22;461;51.436;7.312;2024-03-06T06:38:21;6.00;99.90
949;DHT22;461;51.436;7.312;2024-03-06T06:40:47;5.90;99.90
949;DHT22;461;51.436;7.312;2024-03-06T06:43:13;5.90;99.90
949;DHT22;461;51.436;7.312;2024-03-06T06:45:40;6.00;99.90
949;DHT22;461;51.436;7.312;2024-03-06T06:48:06;6.10;99.90
949;DHT22;461;51.436;7.312;2024-03-06T06:50:34;6.30;99.90
949;DHT22;461;51.436;7.312;2024-03-06T06:53:00;6.40;99.90
949;DHT22;461;51.436;7.312;2024-03-06T06:55:26;6.50;99.90
949;DHT22;461;51.436;7.312;2024-03-06T06:57:52;6.60;99.90
949;DHT22;461;51.436;7.312;2024-03-06T07:00:18;6.70;99.90
949;DHT22;461;51.436;7.312;2024-03-06T07:02:44;6.70;99.90
949;DHT22;461;51.436;7.312;2024-03-06T07:05:11;6.60;99.90
949;DHT22;461;51.436;7.312;2024-03-06T07:07:37;6.60;99.90
949;DHT22;461;51.436;7.312;2024-03-06T07:10:04;6.70;99.90
949;DHT22;461;51.436;7.312;2024-03-06T07:12:30;6.80;99.90
949;DHT22;461;51.436;7.312;2024-03-06T07:14:56;6.80;99.90
949;DHT22;461;51.436;7.312;2024-03-06T07:17:22;6.80;99.90
949;DHT22;461;51.436;7.312;2024-03-06T07:19:48;7.00;99.90
949;DHT22;461;51.436;7.312;2024-03-06T07:22:14;7.10;99.90
949;DHT22;461;51.436;7.312;2024-03-06T07:24:43;7.20;99.90
949;DHT22;461;51.436;7.312;2024-03-06T07:27:10;7.20;99.90
949;DHT22;461;51.436;7.312;2024-03-06T07:29:36;7.10;99.90
949;DHT22;461;51.436;7.312;2024-03-06T07:32:02;7.00;99.90
949;DHT22;461;51.436;7.312;2024-03-06T07:34:31;7.10;99.90
949;DHT22;461;51.436;7.312;2024-03-06T07:36:57;7.40;99.90
949;DHT22;461;51.436;7.312;2024-03-06T07:39:27;7.50;99.90
949;DHT22;461;51.436;7.312;2024-03-06T07:41:53;7.60;99.90
949;DHT22;461;51.436;7.312;2024-03-06T07:44:20;7.80;99.90
949;DHT22;461;51.436;7.312;2024-03-06T07:46:46;7.90;99.90
949;DHT22;461;51.436;7.312;2024-03-06T07:49:11;8.00;99.90
949;DHT22;461;51.436;7.312;2024-03-06T07:51:37;8.10;99.90
949;DHT22;461;51.436;7.312;2024-03-06T07:54:03;8.20;99.90
949;DHT22;461;51.436;7.312;2024-03-06T07:56:29;8.20;99.90
949;DHT22;461;51.436;7.312;2024-03-06T07:59:02;8.20;99.90
949;DHT22;461;51.436;7.312;2024-03-06T08:01:28;8.30;99.90
949;DHT22;461;51.436;7.312;2024-03-06T08:03:54;8.70;99.90
949;DHT22;461;51.436;7.312;2024-03-06T08:06:20;9.00;99.90
949;DHT22;461;51.436;7.312;2024-03-06T08:08:46;9.20;99.90
949;DHT22;461;51.436;7.312;2024-03-06T08:11:13;9.80;99.90
949;DHT22;461;51.436;7.312;2024-03-06T08:13:39;10.40;99.90
949;DHT22;461;51.436;7.312;2024-03-06T08:16:06;10.90;99.90
949;DHT22;461;51.436;7.312;2024-03-06T08:18:37;11.30;99.90
949;DHT22;461;51.436;7.312;2024-03-06T08:21:03;11.50;99.90
949;DHT22;461;51.436;7.312;2024-03-06T08:23:31;11.50;99.90
949;DHT22;461;51.436;7.312;2024-03-06T08:25:56;11.60;99.90
949;DHT22;461;51.436;7.312;2024-03-06T08:28:22;11.50;99.90
949;DHT22;461;51.436;7.312;2024-03-06T08:30:48;11.20;99.90
949;DHT22;461;51.436;7.312;2024-03-06T08:33:14;11.20;99.90
949;DHT22;461;51.436;7.312;2024-03-06T08:35:39;11.40;99.90
949;DHT22;461;51.436;7.312;2024-03-06T08:38:06;11.40;99.90
949;DHT22;461;51.436;7.312;2024-03-06T08:40:32;11.70;99.90
949;DHT22;461;51.436;7.312;2024-03-06T08:43:02;11.70;99.90
949;DHT22;461;51.436;7.312;2024-03-06T08:45:34;11.70;99.90
949;DHT22;461;51.436;7.312;2024-03-06T08:48:02;11.90;99.90
949;DHT22;461;51.436;7.312;2024-03-06T08:50:29;12.00;99.90
949;DHT22;461;51.436;7.312;2024-03-06T08:52:54;12.20;99.90
949;DHT22;461;51.436;7.312;2024-03-06T08:55:20;12.50;99.90
949;DHT22;461;51.436;7.312;2024-03-06T08:57:46;12.60;99.90
949;DHT22;461;51.436;7.312;2024-03-06T09:00:12;12.60;99.90
949;DHT22;461;51.436;7.312;2024-03-06T09:02:40;12.50;99.90
949;DHT22;461;51.436;7.312;2024-03-06T09:05:09;12.40;99.90
949;DHT22;461;51.436;7.312;2024-03-06T09:07:36;12.30;99.90
949;DHT22;461;51.436;7.312;2024-03-06T09:10:05;12.30;99.90
949;DHT22;461;51.436;7.312;2024-03-06T09:12:33;12.20;99.90
949;DHT22;461;51.436;7.312;2024-03-06T09:15:01;12.20;99.90
949;DHT22;461;51.436;7.312;2024-03-06T09:17:27;12.10;99.90
949;DHT22;461;51.436;7.312;2024-03-06T09:19:52;12.00;99.90
949;DHT22;461;51.436;7.312;2024-03-06T09:22:19;12.00;99.90
949;DHT22;461;51.436;7.312;2024-03-06T09:24:45;12.10;99.90
949;DHT22;461;51.436;7.312;2024-03-06T09:27:10;12.30;99.90
949;DHT22;461;51.436;7.312;2024-03-06T09:29:36;12.60;99.90
949;DHT22;461;51.436;7.312;2024-03-06T09:32:11;12.70;99.90
949;DHT22;461;51.436;7.312;2024-03-06T09:34:46;13.00;99.90
949;DHT22;461;51.436;7.312;2024-03-06T09:37:15;13.40;99.90
949;DHT22;461;51.436;7.312;2024-03-06T09:40:17;13.70;99.90
949;DHT22;461;51.436;7.312;2024-03-06T09:43:29;14.00;99.90
949;DHT22;461;51.436;7.312;2024-03-06T09:45:58;14.30;99.90
949;DHT22;461;51.436;7.312;2024-03-06T09:48:49;14.50;99.90
949;DHT22;461;51.436;7.312;2024-03-06T09:51:17;14.60;99.90
949;DHT22;461;51.436;7.312;2024-03-06T09:53:53;14.60;99.90
949;DHT22;461;51.436;7.312;2024-03-06T09:56:35;14.50;99.90
949;DHT22;461;51.436;7.312;2024-03-06T09:59:03;14.60;99.90
949;DHT22;461;51.436;7.312;2024-03-06T10:01:31;14.60;99.90
949;DHT22;461;51.436;7.312;2024-03-06T10:03:57;14.70;99.90
949;DHT22;461;51.436;7.312;2024-03-06T10:06:23;14.60;99.90
949;DHT22;461;51.436;7.312;2024-03-06T10:08:48;14.40;99.90
949;DHT22;461;51.436;7.312;2024-03-06T10:11:17;14.20;99.90
949;DHT22;461;51.436;7.312;2024-03-06T10:13:43;14.20;99.90
949;DHT22;461;51.436;7.312;2024-03-06T10:47:27;16.20;99.90
949;DHT22;461;51.436;7.312;2024-03-06T13:18:38;16.50;99.90
949;DHT22;461;51.436;7.312;2024-03-06T15:18:23;16.90;99.90
949;DHT22;461;51.436;7.312;2024-03-06T15:20:50;14.20;99.90
949;DHT22;461;51.436;7.312;2024-03-06T15:23:16;14.10;99.90
949;DHT22;461;51.436;7.312;2024-03-06T15:25:46;14.20;99.90
949;DHT22;461;51.436;7.312;2024-03-06T15:28:12;14.30;99.90
949;DHT22;461;51.436;7.312;2024-03-06T15:33:07;14.40;99.90
949;DHT22;461;51.436;7.312;2024-03-06T15:35:34;14.50;99.90
949;DHT22;461;51.436;7.312;2024-03-06T15:38:00;14.50;99.90
949;DHT22;461;51.436;7.312;2024-03-06T15:40:26;14.40;99.90
949;DHT22;461;51.436;7.312;2024-03-06T16:00:09;14.10;99.90
949;DHT22;461;51.436;7.312;2024-03-06T16:02:40;13.30;99.90
949;DHT22;461;51.436;7.312;2024-03-06T16:05:07;13.30;99.90
949;DHT22;461;51.436;7.312;2024-03-06T16:07:34;13.30;99.90
949;DHT22;461;51.436;7.312;2024-03-06T22:14:25;7.70;99.90
949;DHT22;461;51.436;7.312;2024-03-06T22:16:50;7.70;99.90
949;DHT22;461;51.436;7.312;2024-03-06T22:19:16;7.70;99.90
949;DHT22;461;51.436;7.312;2024-03-06T22:21:44;7.70;99.90
949;DHT22;461;51.436;7.312;2024-03-06T22:24:10;7.60;99.90
949;DHT22;461;51.436;7.312;2024-03-06T22:26:35;7.60;99.90
949;DHT22;461;51.436;7.312;2024-03-06T22:29:01;7.70;99.90
949;DHT22;461;51.436;7.312;2024-03-06T22:31:29;7.70;99.90
949;DHT22;461;51.436;7.312;2024-03-06T22:33:55;7.60;99.90
949;DHT22;461;51.436;7.312;2024-03-06T22:36:21;7.60;99.90
949;DHT22;461;51.436;7.312;2024-03-06T22:38:47;7.60;99.90
949;DHT22;461;51.436;7.312;2024-03-06T22:41:20;7.50;99.90
949;DHT22;461;51.436;7.312;2024-03-06T22:43:46;7.50;99.90
949;DHT22;461;51.436;7.312;2024-03-06T22:46:12;7.50;99.90
949;DHT22;461;51.436;7.312;2024-03-06T22:48:38;7.40;99.90
949;DHT22;461;51.436;7.312;2024-03-06T22:51:04;7.40;99.90
949;DHT22;461;51.436;7.312;2024-03-06T22:53:31;7.40;99.90
949;DHT22;461;51.436;7.312;2024-03-06T22:55:56;7.40;99.90
949;DHT22;461;51.436;7.312;2024-03-06T22:58:22;7.40;99.90
949;DHT22;461;51.436;7.312;2024-03-06T23:00:48;7.40;99.90
949;DHT22;461;51.436;7.312;2024-03-06T23:03:17;7.40;99.90
949;DHT22;461;51.436;7.312;2024-03-06T23:05:45;7.40;99.90
949;DHT22;461;51.436;7.312;2024-03-06T23:08:11;7.30;99.90
949;DHT22;461;51.436;7.312;2024-03-06T23:10:37;7.30;99.90
949;DHT22;461;51.436;7.312;2024-03-06T23:13:06;7.20;99.90
949;DHT22;461;51.436;7.312;2024-03-06T23:15:32;7.20;99.90
949;DHT22;461;51.436;7.312;2024-03-06T23:17:58;7.20;99.90
949;DHT22;461;51.436;7.312;2024-03-06T23:20:24;7.20;99.90
949;DHT22;461;51.436;7.312;2024-03-06T23:22:50;7.20;99.90
949;DHT22;461;51.436;7.312;2024-03-06T23:25:17;7.10;99.90
949;DHT22;461;51.436;7.312;2024-03-06T23:27:43;7.10;99.90
949;DHT22;461;51.436;7.312;2024-03-06T23:30:14;7.20;99.90
949;DHT22;461;51.436;7.312;2024-03-06T23:32:42;7.20;99.90
949;DHT22;461;51.436;7.312;2024-03-06T23:35:10;7.20;99.90
949;DHT22;461;51.436;7.312;2024-03-06T23:37:36;7.20;99.90
949;DHT22;461;51.436;7.312;2024-03-06T23:40:13;7.20;99.90
949;DHT22;461;51.436;7.312;2024-03-06T23:42:46;7.20;99.90
949;DHT22;461;51.436;7.312;2024-03-06T23:45:14;7.20;99.90
949;DHT22;461;51.436;7.312;2024-03-06T23:47:41;7.10;99.90
949;DHT22;461;51.436;7.312;2024-03-06T23:50:11;7.10;99.90
949;DHT22;461;51.436;7.312;2024-03-06T23:52:40;7.10;99.90
949;DHT22;461;51.436;7.312;2024-03-06T23:55:06;7.10;99.90
949;DHT22;461;51.436;7.312;2024-03-06T23:57:32;7.00;99.90
